createdAt,value
2022-12-13T00:01:34.218Z,4.90
2022-12-13T00:04:03.997Z,4.40
2022-12-13T00:06:31.610Z,4.75
2022-12-13T00:08:59.538Z,4.00
2022-12-13T00:11:27.518Z,3.98
2022-12-13T00:13:55.212Z,3.95
2022-12-13T00:16:24.411Z,3.80
2022-12-13T00:18:55.641Z,3.93
2022-12-13T00:21:27.909Z,3.68
2022-12-13T00:23:54.819Z,3.53
2022-12-13T00:26:25.559Z,3.47
2022-12-13T00:28:54.209Z,3.74
2022-12-13T00:34:10.415Z,3.65
2022-12-13T00:36:37.463Z,3.80
2022-12-13T00:39:04.475Z,3.61
2022-12-13T00:41:36.283Z,3.65
2022-12-13T00:44:04.455Z,3.75
2022-12-13T00:46:32.012Z,3.64
2022-12-13T00:49:01.262Z,3.58
2022-12-13T00:51:30.077Z,3.71
2022-12-13T00:53:57.447Z,3.81
2022-12-13T00:56:26.428Z,3.74
2022-12-13T00:58:54.574Z,3.84
2022-12-13T01:01:24.698Z,3.52
2022-12-13T01:03:54.410Z,3.32
2022-12-13T01:06:25.886Z,3.56
2022-12-13T01:08:52.895Z,3.57
2022-12-13T01:11:20.045Z,3.66
2022-12-13T01:13:47.019Z,3.86
2022-12-13T01:16:14.076Z,3.92
2022-12-13T01:18:41.763Z,4.12
2022-12-13T01:21:20.849Z,3.99
2022-12-13T01:23:49.267Z,3.80
2022-12-13T01:26:19.113Z,3.91
2022-12-13T01:28:46.527Z,4.17
2022-12-13T01:31:16.921Z,4.18
2022-12-13T01:33:43.861Z,4.44
2022-12-13T01:36:19.852Z,4.11
2022-12-13T01:38:58.340Z,3.92
2022-12-13T01:41:27.687Z,3.61
2022-12-13T01:44:03.794Z,3.51
2022-12-13T01:46:36.151Z,3.61
2022-12-13T01:49:19.208Z,3.57
2022-12-13T01:52:00.046Z,3.56
2022-12-13T01:54:34.731Z,3.38
2022-12-13T01:57:04.969Z,3.39
2022-12-13T01:59:33.966Z,3.73
2022-12-13T02:02:01.506Z,3.80
2022-12-13T02:04:51.774Z,3.73
2022-12-13T02:07:23.270Z,3.77
2022-12-13T02:09:57.401Z,3.95
2022-12-13T02:12:29.361Z,3.93
2022-12-13T02:15:00.542Z,3.78
2022-12-13T02:17:49.782Z,3.72
2022-12-13T02:20:39.931Z,3.94
2022-12-13T02:23:40.786Z,4.06
2022-12-13T02:26:52.438Z,3.84
2022-12-13T02:29:31.765Z,4.03
2022-12-13T02:32:00.704Z,4.40
2022-12-13T02:34:37.847Z,4.22
2022-12-13T02:37:18.039Z,3.94
2022-12-13T02:40:00.016Z,3.80
2022-12-13T02:42:35.801Z,3.72
2022-12-13T02:45:26.032Z,3.82
2022-12-13T02:47:56.455Z,3.71
2022-12-13T02:50:26.286Z,3.85
2022-12-13T02:52:54.639Z,3.85
2022-12-13T02:55:26.560Z,3.66
2022-12-13T02:57:55.025Z,3.81
2022-12-13T03:00:29.862Z,3.77
2022-12-13T03:03:24.600Z,3.59
2022-12-13T03:06:33.847Z,3.50
2022-12-13T03:09:54.909Z,3.62
2022-12-13T03:12:49.438Z,3.78
2022-12-13T03:15:22.276Z,4.16
2022-12-13T03:18:05.269Z,4.60
2022-12-13T03:20:32.753Z,4.80
2022-12-13T03:22:59.739Z,4.25
2022-12-13T03:25:32.096Z,4.11
2022-12-13T03:28:03.229Z,4.00
2022-12-13T03:30:33.041Z,3.81
2022-12-13T03:33:00.960Z,3.64
2022-12-13T03:35:34.437Z,3.39
2022-12-13T03:38:21.870Z,2.90
2022-12-13T03:41:12.087Z,3.01
2022-12-13T03:43:40.641Z,2.93
2022-12-13T03:46:08.874Z,2.72
2022-12-13T03:48:35.910Z,2.60
2022-12-13T03:51:02.998Z,2.45
2022-12-13T03:53:32.442Z,2.40
2022-12-13T03:56:03.147Z,2.34
2022-12-13T03:58:35.208Z,2.06
2022-12-13T04:01:06.617Z,1.79
2022-12-13T04:03:33.748Z,1.60
2022-12-13T04:06:00.650Z,1.55
2022-12-13T04:08:27.696Z,1.43
2022-12-13T04:10:54.565Z,1.34
2022-12-13T04:13:33.403Z,1.43
2022-12-13T04:16:02.309Z,1.24
2022-12-13T04:18:29.521Z,1.13
2022-12-13T04:20:57.656Z,1.10
2022-12-13T04:23:24.906Z,1.05
2022-12-13T04:25:51.994Z,1.00
2022-12-13T04:28:22.172Z,0.93
2022-12-13T04:30:52.929Z,1.12
2022-12-13T04:33:21.334Z,1.06
2022-12-13T04:35:48.717Z,1.05
2022-12-13T04:38:16.242Z,1.00
2022-12-13T04:40:43.145Z,0.77
2022-12-13T04:43:10.078Z,0.73
2022-12-13T04:45:37.408Z,0.73
2022-12-13T04:48:05.602Z,0.79
2022-12-13T04:50:33.225Z,0.75
2022-12-13T04:53:00.192Z,0.77
2022-12-13T04:55:27.195Z,0.85
2022-12-13T04:57:54.109Z,0.70
2022-12-13T05:00:22.512Z,0.72
2022-12-13T05:02:49.453Z,0.66
2022-12-13T05:05:16.707Z,0.77
2022-12-13T05:07:44.029Z,1.03
2022-12-13T05:10:12.247Z,1.00
2022-12-13T05:12:39.359Z,0.73
2022-12-13T05:15:06.891Z,0.92
2022-12-13T05:17:34.285Z,0.82
2022-12-13T05:20:01.180Z,0.71
2022-12-13T05:22:28.144Z,0.88
2022-12-13T05:24:55.060Z,0.89
2022-12-13T05:27:25.356Z,0.90
2022-12-13T05:30:02.678Z,0.63
2022-12-13T05:32:43.949Z,0.50
2022-12-13T05:35:23.049Z,0.57
2022-12-13T05:37:55.356Z,0.66
2022-12-13T05:40:27.748Z,0.44
2022-12-13T05:43:01.380Z,0.49
2022-12-13T05:45:30.477Z,0.47
2022-12-13T05:47:57.641Z,0.51
2022-12-13T05:50:25.321Z,0.93
2022-12-13T05:52:52.603Z,0.93
2022-12-13T05:55:19.972Z,0.78
2022-12-13T05:57:50.622Z,0.86
2022-12-13T06:00:29.389Z,0.66
2022-12-13T06:03:00.717Z,0.78
2022-12-13T06:05:29.572Z,0.75
2022-12-13T06:07:58.184Z,0.88
2022-12-13T06:10:34.996Z,0.36
2022-12-13T06:13:21.626Z,0.39
2022-12-13T06:16:01.594Z,0.87
2022-12-13T06:18:31.911Z,1.00
2022-12-13T06:21:06.035Z,0.86
2022-12-13T06:23:34.597Z,0.92
2022-12-13T06:26:06.379Z,0.79
2022-12-13T06:28:33.412Z,0.68
2022-12-13T06:31:01.601Z,0.98
2022-12-13T06:33:28.878Z,0.61
2022-12-13T06:35:59.142Z,0.62
2022-12-13T06:38:32.018Z,0.71
2022-12-13T06:41:17.006Z,0.67
2022-12-13T06:43:48.514Z,0.76
2022-12-13T06:46:16.507Z,0.49
2022-12-13T06:48:43.576Z,0.45
2022-12-13T06:51:10.701Z,0.30
2022-12-13T06:53:39.894Z,0.23
2022-12-13T06:56:12.143Z,0.37
2022-12-13T06:58:39.749Z,0.48
2022-12-13T07:01:24.450Z,0.58
2022-12-13T07:03:54.555Z,0.51
2022-12-13T07:06:23.487Z,0.57
2022-12-13T07:08:56.003Z,0.79
2022-12-13T07:11:26.509Z,0.65
2022-12-13T07:13:54.566Z,0.82
2022-12-13T07:16:22.712Z,0.77
2022-12-13T07:19:04.351Z,0.87
2022-12-13T07:21:50.161Z,1.04
2022-12-13T07:24:17.032Z,1.06
2022-12-13T07:26:43.947Z,1.60
2022-12-13T07:29:10.837Z,1.67
2022-12-13T07:31:37.850Z,1.53
2022-12-13T07:34:04.768Z,0.98
2022-12-13T07:36:31.708Z,1.06
2022-12-13T07:38:58.939Z,1.06
2022-12-13T07:41:26.829Z,1.58
2022-12-13T07:43:55.958Z,1.27
2022-12-13T07:46:32.333Z,1.12
2022-12-13T07:49:02.781Z,1.12
2022-12-13T07:51:29.930Z,1.18
2022-12-13T07:53:57.953Z,0.95
2022-12-13T07:56:24.962Z,0.92
2022-12-13T07:58:51.860Z,0.92
2022-12-13T08:01:18.940Z,1.16
2022-12-13T08:03:48.660Z,1.23
2022-12-13T08:06:15.629Z,1.16
2022-12-13T08:08:42.877Z,1.26
2022-12-13T08:11:12.461Z,1.42
2022-12-13T08:13:40.738Z,1.72
2022-12-13T08:16:28.114Z,2.02
2022-12-13T08:19:02.225Z,2.42
2022-12-13T08:21:54.053Z,2.97
2022-12-13T08:24:21.832Z,3.08
2022-12-13T08:26:48.827Z,3.45
2022-12-13T08:29:23.297Z,2.98
2022-12-13T08:32:12.087Z,2.99
2022-12-13T08:34:39.717Z,2.81
2022-12-13T08:37:06.768Z,2.66
2022-12-13T08:39:37.342Z,2.58
2022-12-13T08:42:19.888Z,2.91
2022-12-13T08:44:48.877Z,2.61
2022-12-13T08:47:24.460Z,2.58
2022-12-13T08:49:53.924Z,2.43
2022-12-13T08:52:22.600Z,2.64
2022-12-13T08:54:49.680Z,2.45
2022-12-13T08:57:16.751Z,2.44
2022-12-13T08:59:45.212Z,2.41
2022-12-13T09:02:14.160Z,2.42
2022-12-13T09:04:41.700Z,2.30
2022-12-13T09:07:09.563Z,2.75
2022-12-13T09:09:37.242Z,2.77
2022-12-13T09:12:10.979Z,3.03
2022-12-13T09:14:52.707Z,3.55
2022-12-13T09:17:36.933Z,3.79
2022-12-13T09:20:28.536Z,3.67
2022-12-13T09:23:01.999Z,3.62
2022-12-13T09:25:37.517Z,3.44
2022-12-13T09:28:08.738Z,3.02
2022-12-13T09:30:37.903Z,2.91
2022-12-13T09:33:28.258Z,2.70
2022-12-13T09:35:52.853Z,3.38
2022-12-13T09:38:20.457Z,3.20
2022-12-13T09:40:59.080Z,3.45
2022-12-13T09:43:42.334Z,3.70
2022-12-13T09:46:34.838Z,4.31
2022-12-13T09:49:23.351Z,4.30
2022-12-13T09:52:11.518Z,4.62
2022-12-13T09:54:55.370Z,4.05
2022-12-13T09:57:30.838Z,4.16
2022-12-13T10:00:04.710Z,4.50
2022-12-13T10:02:43.591Z,5.69
2022-12-13T10:05:38.411Z,5.41
2022-12-13T10:08:36.573Z,6.22
2022-12-13T10:11:04.405Z,6.26
2022-12-13T10:13:45.900Z,6.25
2022-12-13T10:16:23.476Z,6.67
2022-12-13T10:18:51.196Z,5.61
2022-12-13T10:21:26.610Z,6.33
2022-12-13T10:26:43.460Z,5.44
2022-12-13T10:29:11.195Z,5.22
2022-12-13T10:31:46.706Z,5.90
2022-12-13T10:34:25.723Z,6.59
2022-12-13T10:36:53.398Z,6.91
2022-12-13T10:39:41.842Z,7.10
2022-12-13T10:42:22.038Z,7.01
2022-12-13T10:45:10.602Z,6.31
2022-12-13T10:47:37.791Z,7.52
2022-12-13T10:50:05.362Z,7.72
2022-12-13T10:52:43.467Z,7.76
2022-12-13T10:55:33.974Z,6.86
2022-12-13T10:58:09.929Z,6.84
2022-12-13T11:00:45.608Z,6.69
2022-12-13T11:03:33.540Z,6.70
2022-12-13T11:06:18.158Z,6.63
2022-12-13T11:08:45.138Z,6.31
2022-12-13T11:11:13.127Z,6.20
2022-12-13T11:13:47.259Z,6.62
2022-12-13T11:16:39.009Z,6.80
2022-12-13T11:19:19.932Z,7.21
2022-12-13T11:21:49.222Z,7.23
2022-12-13T11:24:23.314Z,6.04
2022-12-13T11:26:57.387Z,6.01
2022-12-13T11:29:39.847Z,6.58
2022-12-13T11:32:27.020Z,6.32
2022-12-13T11:35:29.637Z,6.01
2022-12-13T11:37:59.526Z,5.95
2022-12-13T11:40:30.936Z,5.99
2022-12-13T11:43:27.094Z,5.87
2022-12-13T11:45:57.883Z,6.15
2022-12-13T11:48:27.661Z,6.22
2022-12-13T11:50:56.768Z,6.42
2022-12-13T11:53:45.135Z,7.38
2022-12-13T11:56:27.616Z,6.70
2022-12-13T11:59:03.376Z,7.85
2022-12-13T12:01:51.839Z,7.32
2022-12-13T12:04:40.618Z,6.90
2022-12-13T12:07:32.417Z,6.99
2022-12-13T12:10:33.536Z,7.01
2022-12-13T12:13:24.763Z,6.80
2022-12-13T12:16:12.264Z,7.16
2022-12-13T12:18:39.214Z,7.17
2022-12-13T12:21:42.745Z,6.72
2022-12-13T12:24:33.943Z,7.40
2022-12-13T12:27:22.383Z,7.42
2022-12-13T12:30:11.414Z,6.34
2022-12-13T12:32:50.814Z,7.35
2022-12-13T12:35:49.634Z,6.57
2022-12-13T12:38:41.286Z,6.48
2022-12-13T12:41:15.942Z,6.71
2022-12-13T12:43:44.980Z,6.24
2022-12-13T12:47:28.603Z,5.76
2022-12-13T12:49:44.908Z,6.99
2022-12-13T12:52:43.716Z,7.78
2022-12-13T12:55:40.865Z,5.35
2022-12-13T12:58:24.031Z,4.59
2022-12-13T13:01:03.272Z,4.53
2022-12-13T13:03:34.659Z,4.28
2022-12-13T13:06:23.773Z,3.79
2022-12-13T13:08:59.366Z,3.72
2022-12-13T13:11:30.066Z,3.66
2022-12-13T13:14:26.758Z,3.78
2022-12-13T13:16:53.976Z,3.49
2022-12-13T13:19:25.707Z,3.36
2022-12-13T13:22:02.108Z,3.17
2022-12-13T13:24:32.262Z,3.00
2022-12-13T13:27:20.231Z,3.00
2022-12-13T13:29:47.440Z,3.07
2022-12-13T13:32:28.610Z,2.98
2022-12-13T13:35:30.790Z,2.99
2022-12-13T13:38:00.410Z,2.93
2022-12-13T13:40:35.834Z,3.01
2022-12-13T13:43:05.700Z,2.99
2022-12-13T13:45:51.546Z,2.89
2022-12-13T13:48:37.254Z,2.79
2022-12-13T13:51:22.391Z,2.90
2022-12-13T13:54:01.169Z,2.99
2022-12-13T13:56:50.057Z,3.09
2022-12-13T13:59:38.047Z,2.99
2022-12-13T14:02:24.289Z,2.72
2022-12-13T14:04:54.183Z,3.18
2022-12-13T14:07:30.274Z,3.53
2022-12-13T14:10:17.344Z,3.41
2022-12-13T14:13:18.966Z,3.18
2022-12-13T14:16:21.386Z,2.59
2022-12-13T14:19:20.614Z,2.76
2022-12-13T14:22:18.672Z,2.55
2022-12-13T14:25:04.716Z,2.78
2022-12-13T14:28:00.519Z,2.94
2022-12-13T14:30:29.420Z,3.23
2022-12-13T14:32:57.427Z,2.95
2022-12-13T14:35:29.615Z,2.98
2022-12-13T14:38:06.061Z,2.95
2022-12-13T14:40:47.546Z,2.93
2022-12-13T14:43:35.574Z,2.37
2022-12-13T14:46:07.747Z,2.25
2022-12-13T14:48:37.634Z,2.59
2022-12-13T14:51:04.984Z,2.62
2022-12-13T14:53:39.307Z,2.57
2022-12-13T14:56:27.814Z,2.67
2022-12-13T14:59:02.141Z,3.14
2022-12-13T15:01:36.336Z,3.31
2022-12-13T15:04:38.043Z,3.23
2022-12-13T15:07:28.562Z,3.25
2022-12-13T15:09:58.884Z,3.31
2022-12-13T15:12:26.707Z,3.02
2022-12-13T15:14:59.923Z,2.93
2022-12-13T15:17:40.191Z,2.64
2022-12-13T15:20:22.295Z,2.53
2022-12-13T15:23:01.379Z,2.30
2022-12-13T15:25:34.019Z,2.56
2022-12-13T15:28:01.064Z,3.00
2022-12-13T15:30:32.175Z,3.15
2022-12-13T15:33:03.689Z,2.65
2022-12-13T15:35:30.826Z,2.45
2022-12-13T15:37:57.941Z,2.75
2022-12-13T15:40:25.216Z,2.71
2022-12-13T15:42:52.425Z,2.65
2022-12-13T15:45:23.589Z,2.64
2022-12-13T15:47:52.366Z,2.61
2022-12-13T15:50:43.677Z,2.46
2022-12-13T15:53:28.608Z,2.21
2022-12-13T15:55:56.083Z,2.22
2022-12-13T15:58:26.966Z,2.03
2022-12-13T16:00:54.222Z,1.96
2022-12-13T16:03:24.809Z,1.95
2022-12-13T16:05:56.991Z,2.16
2022-12-13T16:08:31.499Z,2.18
2022-12-13T16:10:59.550Z,2.22
2022-12-13T16:13:37.977Z,2.02
2022-12-13T16:16:40.399Z,1.95
2022-12-13T16:19:17.688Z,2.01
2022-12-13T16:21:44.932Z,2.24
2022-12-13T16:24:12.007Z,2.24
2022-12-13T16:26:45.551Z,2.07
2022-12-13T16:29:16.551Z,2.08
2022-12-13T16:31:46.954Z,1.98
2022-12-13T16:34:18.263Z,2.14
2022-12-13T16:36:47.424Z,2.21
2022-12-13T16:39:15.009Z,2.25
2022-12-13T16:41:46.885Z,2.17
2022-12-13T16:44:32.986Z,2.04
2022-12-13T16:47:12.886Z,2.10
2022-12-13T16:49:45.686Z,1.83
2022-12-13T16:52:12.657Z,1.94
2022-12-13T16:54:39.606Z,1.73
2022-12-13T16:57:06.568Z,1.99
2022-12-13T16:59:33.427Z,1.85
2022-12-13T17:02:00.381Z,1.75
2022-12-13T17:04:27.423Z,1.71
2022-12-13T17:06:55.547Z,1.87
2022-12-13T17:09:24.104Z,1.96
2022-12-13T17:11:51.295Z,1.24
2022-12-13T17:14:18.184Z,1.24
2022-12-13T17:16:45.260Z,1.28
2022-12-13T17:19:14.733Z,1.35
2022-12-13T17:21:41.927Z,1.43
2022-12-13T17:24:09.009Z,1.52
2022-12-13T17:26:36.240Z,1.52
2022-12-13T17:29:03.365Z,1.81
2022-12-13T17:31:35.425Z,1.32
2022-12-13T17:34:04.355Z,1.30
2022-12-13T17:36:34.319Z,1.22
2022-12-13T17:39:02.048Z,1.24
2022-12-13T17:41:29.169Z,1.27
2022-12-13T17:44:00.647Z,1.49
2022-12-13T17:46:27.859Z,1.59
2022-12-13T17:48:54.899Z,1.56
2022-12-13T17:51:21.936Z,1.67
2022-12-13T17:53:48.843Z,1.32
2022-12-13T17:56:16.231Z,1.17
2022-12-13T17:58:43.741Z,1.20
2022-12-13T18:01:14.532Z,1.40
2022-12-13T18:03:41.683Z,1.56
2022-12-13T18:06:09.330Z,1.38
2022-12-13T18:08:39.699Z,1.47
2022-12-13T18:11:31.971Z,1.32
2022-12-13T18:13:55.737Z,1.03
2022-12-13T18:16:30.304Z,0.52
2022-12-13T18:19:03.147Z,0.44
2022-12-13T18:21:30.308Z,0.67
2022-12-13T18:23:59.722Z,0.53
2022-12-13T18:26:26.607Z,0.52
2022-12-13T18:28:54.052Z,-0.08
2022-12-13T18:31:24.066Z,-0.17
2022-12-13T18:33:53.123Z,-0.38
2022-12-13T18:36:22.095Z,-0.34
2022-12-13T18:38:49.947Z,-0.57
2022-12-13T18:41:20.297Z,-0.16
2022-12-13T18:43:47.844Z,0.24
2022-12-13T18:46:16.131Z,0.36
2022-12-13T18:48:43.338Z,0.13
2022-12-13T18:51:11.169Z,-0.39
2022-12-13T18:53:40.260Z,-0.41
2022-12-13T18:56:17.480Z,-0.32
2022-12-13T18:58:46.790Z,-0.25
2022-12-13T19:01:15.971Z,0.24
2022-12-13T19:03:45.306Z,0.13
2022-12-13T19:06:18.014Z,0.10
2022-12-13T19:08:48.797Z,0.24
2022-12-13T19:11:15.902Z,0.14
2022-12-13T19:13:42.846Z,0.23
2022-12-13T19:16:12.473Z,0.24
2022-12-13T19:18:40.783Z,0.28
2022-12-13T19:21:10.226Z,0.36
2022-12-13T19:23:39.291Z,0.24
2022-12-13T19:26:13.310Z,0.15
2022-12-13T19:28:41.987Z,0.31
2022-12-13T19:31:11.544Z,0.14
2022-12-13T19:33:39.953Z,-0.06
2022-12-13T19:36:07.369Z,-0.28
2022-12-13T19:38:34.388Z,-0.23
2022-12-13T19:41:07.179Z,-0.41
2022-12-13T19:43:34.543Z,-0.12
2022-12-13T19:46:03.147Z,-0.14
2022-12-13T19:48:30.443Z,0.06
2022-12-13T19:51:04.407Z,0.18
2022-12-13T19:53:31.843Z,0.39
2022-12-13T19:55:59.279Z,0.47
2022-12-13T19:58:26.908Z,0.30
2022-12-13T20:01:01.722Z,0.39
2022-12-13T20:03:33.167Z,-0.04
2022-12-13T20:06:01.778Z,-0.25
2022-12-13T20:08:28.889Z,-0.51
2022-12-13T20:11:10.430Z,-0.56
2022-12-13T20:13:37.842Z,-0.47
2022-12-13T20:16:05.549Z,-0.09
2022-12-13T20:18:34.062Z,-0.16
2022-12-13T20:21:12.131Z,-0.13
2022-12-13T20:23:40.528Z,-0.17
2022-12-13T20:26:11.635Z,-0.54
2022-12-13T20:28:39.338Z,-0.43
2022-12-13T20:31:08.936Z,-0.39
2022-12-13T20:33:36.505Z,-0.41
2022-12-13T20:38:56.123Z,-0.06
2022-12-13T20:41:25.097Z,0.03
2022-12-13T20:43:57.327Z,-0.42
2022-12-13T20:46:25.527Z,-0.68
2022-12-13T20:48:54.131Z,-0.64
2022-12-13T20:51:23.169Z,-0.33
2022-12-13T20:53:51.373Z,-0.52
2022-12-13T20:56:21.261Z,-0.51
2022-12-13T20:58:48.233Z,-0.11
2022-12-13T21:01:17.510Z,-0.15
2022-12-13T21:03:44.867Z,-0.19
2022-12-13T21:06:11.946Z,-0.16
2022-12-13T21:08:51.339Z,-0.06
2022-12-13T21:11:25.332Z,-0.65
2022-12-13T21:14:21.150Z,-1.09
2022-12-13T21:17:00.143Z,-0.63
2022-12-13T21:19:39.106Z,-0.78
2022-12-13T21:22:06.854Z,-0.49
2022-12-13T21:24:33.825Z,-0.58
2022-12-13T21:27:00.994Z,-0.47
2022-12-13T21:29:28.064Z,-0.78
2022-12-13T21:31:55.298Z,-0.69
2022-12-13T21:34:22.885Z,-0.50
2022-12-13T21:36:52.492Z,-0.48
2022-12-13T21:39:24.900Z,-0.32
2022-12-13T21:41:52.567Z,-0.18
2022-12-13T21:44:19.910Z,-0.14
2022-12-13T21:49:34.341Z,-0.11
2022-12-13T21:52:01.234Z,-0.38
2022-12-13T21:54:28.293Z,-0.42
2022-12-13T21:57:13.711Z,-0.26
2022-12-13T21:59:40.762Z,-0.40
2022-12-13T22:02:16.132Z,-0.61
2022-12-13T22:04:56.230Z,-0.36
2022-12-13T22:07:33.815Z,-0.42
2022-12-13T22:10:02.135Z,-0.70
2022-12-13T22:12:41.251Z,-0.86
2022-12-13T22:15:14.304Z,-0.76
2022-12-13T22:17:42.523Z,-0.90
2022-12-13T22:20:13.002Z,-0.85
2022-12-13T22:22:41.979Z,-0.71
2022-12-13T22:25:09.936Z,-0.73
2022-12-13T22:27:36.984Z,-0.55
2022-12-13T22:30:04.469Z,-0.62
2022-12-13T22:32:32.449Z,-0.60
2022-12-13T22:34:59.677Z,-0.46
2022-12-13T22:37:26.626Z,-0.77
2022-12-13T22:39:54.245Z,-0.89
2022-12-13T22:42:21.628Z,-1.06
2022-12-13T22:44:48.547Z,-1.14
2022-12-13T22:47:15.828Z,-0.82
2022-12-13T22:49:42.908Z,-0.73
2022-12-13T22:52:09.835Z,-0.79
2022-12-13T22:54:36.721Z,-0.44
2022-12-13T22:57:03.901Z,-0.50
2022-12-13T22:59:31.101Z,-0.37
2022-12-13T23:02:02.498Z,-0.48
2022-12-13T23:04:32.620Z,-0.53
2022-12-13T23:07:00.944Z,-0.48
2022-12-13T23:09:27.974Z,-0.34
2022-12-13T23:12:13.782Z,-0.66
2022-12-13T23:14:40.720Z,-0.46
2022-12-13T23:17:07.792Z,-0.33
2022-12-13T23:19:50.608Z,-0.24
2022-12-13T23:22:24.625Z,-0.45
2022-12-13T23:24:52.888Z,-0.41
2022-12-13T23:27:21.915Z,-0.56
2022-12-13T23:29:49.625Z,-0.15
2022-12-13T23:32:16.510Z,0.33
2022-12-13T23:34:43.435Z,0.33
2022-12-13T23:37:10.342Z,0.13
2022-12-13T23:39:37.288Z,-0.37
2022-12-13T23:42:04.305Z,-0.05
2022-12-13T23:44:31.184Z,0.08
2022-12-13T23:46:58.076Z,0.19
2022-12-13T23:49:24.988Z,0.12
2022-12-13T23:51:52.433Z,-0.61
2022-12-13T23:54:20.418Z,-0.74
2022-12-13T23:56:47.820Z,-0.31
2022-12-13T23:59:16.134Z,-0.35
